createdAt,value
2022-09-21T00:01:24.838Z,1.25
2022-09-21T00:03:58.210Z,1.20
2022-09-21T00:06:27.545Z,1.08
2022-09-21T00:08:56.335Z,1.13
2022-09-21T00:11:30.165Z,1.20
2022-09-21T00:14:12.180Z,1.13
2022-09-21T00:16:42.609Z,1.30
2022-09-21T00:19:10.793Z,1.10
2022-09-21T00:21:38.224Z,0.93
2022-09-21T00:24:07.079Z,1.20
2022-09-21T00:26:34.753Z,1.15
2022-09-21T00:29:03.941Z,1.17
2022-09-21T00:31:32.103Z,1.00
2022-09-21T00:34:00.289Z,1.30
2022-09-21T00:36:28.494Z,1.10
2022-09-21T00:38:59.554Z,1.23
2022-09-21T00:41:29.533Z,1.27
2022-09-21T00:44:33.027Z,1.23
2022-09-21T00:47:09.710Z,1.30
2022-09-21T00:49:38.223Z,1.10
2022-09-21T00:52:07.269Z,1.30
2022-09-21T00:54:57.807Z,1.00
2022-09-21T00:57:30.911Z,1.00
2022-09-21T01:00:02.070Z,0.93
2022-09-21T01:02:29.262Z,0.98
2022-09-21T01:04:57.029Z,1.10
2022-09-21T01:07:29.641Z,1.13
2022-09-21T01:10:05.257Z,1.00
2022-09-21T01:13:17.031Z,1.00
2022-09-21T01:16:07.467Z,1.20
2022-09-21T01:18:47.995Z,1.15
2022-09-21T01:21:25.213Z,1.25
2022-09-21T01:24:40.256Z,1.02
2022-09-21T01:27:31.741Z,1.20
2022-09-21T01:30:03.331Z,1.20
2022-09-21T01:32:41.181Z,0.95
2022-09-21T01:35:34.929Z,1.13
2022-09-21T01:38:35.886Z,1.10
2022-09-21T01:41:07.145Z,1.10
2022-09-21T01:43:53.101Z,1.27
2022-09-21T01:46:22.473Z,1.00
2022-09-21T01:48:58.518Z,1.17
2022-09-21T01:51:28.864Z,0.80
2022-09-21T01:54:13.087Z,1.00
2022-09-21T01:56:46.704Z,1.10
2022-09-21T01:59:56.808Z,1.10
2022-09-21T02:02:58.523Z,0.88
2022-09-21T02:05:30.297Z,0.95
2022-09-21T02:07:59.673Z,1.00
2022-09-21T02:10:45.672Z,1.20
2022-09-21T02:13:15.385Z,0.82
2022-09-21T02:16:06.816Z,1.10
2022-09-21T02:19:14.118Z,0.80
2022-09-21T02:21:49.133Z,0.95
2022-09-21T02:24:43.274Z,1.08
2022-09-21T02:27:34.579Z,1.40
2022-09-21T02:30:14.394Z,1.00
2022-09-21T02:33:04.768Z,1.02
2022-09-21T02:35:50.066Z,0.85
2022-09-21T02:38:46.204Z,0.80
2022-09-21T02:41:47.701Z,0.95
2022-09-21T02:44:33.122Z,0.90
2022-09-21T02:47:25.386Z,1.10
2022-09-21T02:49:58.814Z,1.05
2022-09-21T02:52:27.945Z,0.88
2022-09-21T02:54:57.293Z,1.00
2022-09-21T02:57:26.047Z,1.10
2022-09-21T02:59:53.320Z,1.00
2022-09-21T03:02:20.231Z,0.80
2022-09-21T03:04:48.974Z,0.98
2022-09-21T03:07:17.280Z,0.95
2022-09-21T03:09:44.886Z,0.95
2022-09-21T03:12:11.939Z,1.08
2022-09-21T03:14:39.075Z,0.95
2022-09-21T03:17:06.046Z,1.10
2022-09-21T03:19:32.968Z,0.95
2022-09-21T03:22:00.144Z,1.10
2022-09-21T03:24:45.873Z,0.70
2022-09-21T03:27:22.936Z,0.90
2022-09-21T03:29:50.750Z,0.82
2022-09-21T03:32:17.615Z,1.00
2022-09-21T03:34:44.472Z,1.00
2022-09-21T03:37:11.959Z,1.15
2022-09-21T03:39:39.030Z,0.90
2022-09-21T03:42:06.404Z,0.90
2022-09-21T03:44:33.375Z,1.00
2022-09-21T03:47:00.219Z,0.90
2022-09-21T03:49:27.144Z,0.95
2022-09-21T03:51:54.607Z,1.00
2022-09-21T03:54:21.497Z,1.00
2022-09-21T03:56:48.366Z,1.23
2022-09-21T03:59:15.365Z,0.80
2022-09-21T04:01:42.751Z,1.00
2022-09-21T04:04:10.363Z,1.20
2022-09-21T04:06:37.276Z,1.00
2022-09-21T04:09:04.494Z,0.80
2022-09-21T04:11:32.423Z,0.93
2022-09-21T04:13:59.981Z,0.90
2022-09-21T04:16:28.295Z,1.00
2022-09-21T04:18:56.003Z,0.90
2022-09-21T04:21:23.242Z,0.82
2022-09-21T04:23:50.429Z,1.10
2022-09-21T04:26:25.750Z,1.08
2022-09-21T04:28:54.043Z,1.00
2022-09-21T04:31:22.721Z,0.85
2022-09-21T04:33:51.800Z,0.90
2022-09-21T04:36:21.782Z,0.93
2022-09-21T04:38:49.436Z,1.08
2022-09-21T04:41:17.884Z,0.90
2022-09-21T04:43:47.517Z,0.85
2022-09-21T04:46:20.625Z,1.00
2022-09-21T04:48:49.803Z,1.00
2022-09-21T04:51:19.484Z,1.08
2022-09-21T04:53:46.285Z,1.00
2022-09-21T04:56:16.503Z,0.90
2022-09-21T04:58:44.167Z,1.10
2022-09-21T05:01:11.999Z,0.98
2022-09-21T05:03:39.468Z,1.00
2022-09-21T05:06:06.751Z,0.90
2022-09-21T05:08:51.993Z,0.90
2022-09-21T05:11:19.458Z,1.13
2022-09-21T05:13:47.531Z,1.10
2022-09-21T05:16:16.413Z,0.90
2022-09-21T05:18:44.576Z,0.80
2022-09-21T05:21:15.107Z,1.13
2022-09-21T05:23:42.392Z,0.95
2022-09-21T05:26:09.339Z,0.88
2022-09-21T05:28:40.090Z,0.90
2022-09-21T05:31:43.306Z,0.80
2022-09-21T05:34:30.945Z,1.00
2022-09-21T05:37:20.485Z,0.98
2022-09-21T05:39:47.762Z,0.75
2022-09-21T05:42:15.084Z,0.80
2022-09-21T05:44:42.657Z,1.00
2022-09-21T05:47:42.071Z,1.02
2022-09-21T05:50:36.119Z,0.90
2022-09-21T05:53:24.098Z,0.98
2022-09-21T05:56:05.058Z,0.82
2022-09-21T05:59:07.483Z,0.90
2022-09-21T06:02:21.833Z,1.10
2022-09-21T06:04:51.675Z,0.85
2022-09-21T06:07:18.491Z,0.80
2022-09-21T06:09:45.455Z,1.00
2022-09-21T06:12:12.749Z,0.80
2022-09-21T06:14:39.650Z,1.00
2022-09-21T06:17:06.626Z,0.95
2022-09-21T06:19:33.900Z,0.77
2022-09-21T06:22:00.794Z,1.20
2022-09-21T06:24:27.928Z,0.80
2022-09-21T06:26:54.791Z,1.10
2022-09-21T06:29:23.656Z,1.10
2022-09-21T06:31:51.552Z,1.00
2022-09-21T06:34:18.907Z,1.17
2022-09-21T06:36:45.895Z,1.20
2022-09-21T06:39:13.110Z,1.00
2022-09-21T06:41:40.462Z,1.20
2022-09-21T06:44:07.443Z,1.00
2022-09-21T06:46:36.158Z,1.15
2022-09-21T06:49:03.257Z,1.40
2022-09-21T06:51:30.233Z,1.33
2022-09-21T06:53:58.568Z,1.20
2022-09-21T06:56:26.685Z,1.38
2022-09-21T06:58:55.101Z,1.50
2022-09-21T07:01:22.123Z,1.30
2022-09-21T07:03:51.676Z,1.33
2022-09-21T07:06:21.832Z,1.35
2022-09-21T07:11:41.440Z,1.30
2022-09-21T07:14:08.646Z,1.23
2022-09-21T07:16:39.042Z,1.40
2022-09-21T07:19:13.276Z,1.20
2022-09-21T07:21:46.247Z,1.58
2022-09-21T07:24:13.264Z,1.40
2022-09-21T07:26:40.593Z,1.00
2022-09-21T07:29:07.597Z,1.60
2022-09-21T07:31:35.222Z,1.20
2022-09-21T07:34:02.322Z,1.35
2022-09-21T07:36:29.340Z,1.50
2022-09-21T07:38:56.215Z,1.85
2022-09-21T07:41:23.260Z,1.83
2022-09-21T07:43:50.397Z,1.52
2022-09-21T07:46:17.390Z,1.60
2022-09-21T07:48:44.488Z,1.38
2022-09-21T07:51:22.569Z,1.70
2022-09-21T07:53:56.671Z,1.27
2022-09-21T07:56:26.694Z,1.42
2022-09-21T07:59:06.017Z,1.42
2022-09-21T08:01:39.121Z,2.00
2022-09-21T08:04:09.797Z,1.73
2022-09-21T08:06:40.176Z,1.50
2022-09-21T08:09:08.754Z,1.30
2022-09-21T08:11:37.527Z,1.33
2022-09-21T08:14:06.386Z,1.52
2022-09-21T08:16:34.081Z,1.38
2022-09-21T08:19:02.188Z,1.38
2022-09-21T08:21:29.084Z,1.23
2022-09-21T08:23:56.108Z,1.77
2022-09-21T08:26:25.337Z,1.58
2022-09-21T08:28:56.588Z,1.40
2022-09-21T08:31:24.495Z,1.77
2022-09-21T08:33:52.954Z,1.80
2022-09-21T08:36:20.512Z,1.45
2022-09-21T08:38:48.476Z,1.67
2022-09-21T08:41:23.018Z,1.50
2022-09-21T08:44:03.159Z,1.38
2022-09-21T08:46:34.726Z,1.40
2022-09-21T08:49:29.059Z,2.20
2022-09-21T08:52:14.932Z,2.00
2022-09-21T08:54:51.563Z,1.40
2022-09-21T08:57:20.824Z,1.80
2022-09-21T08:59:49.958Z,1.55
2022-09-21T09:02:39.810Z,1.42
2022-09-21T09:05:43.643Z,1.67
2022-09-21T09:08:31.673Z,1.25
2022-09-21T09:11:14.633Z,1.08
2022-09-21T09:14:38.688Z,1.40
2022-09-21T09:17:47.451Z,1.23
2022-09-21T09:20:47.368Z,1.50
2022-09-21T09:23:37.951Z,1.50
2022-09-21T09:27:06.158Z,1.20
2022-09-21T09:30:06.233Z,1.30
2022-09-21T09:33:24.002Z,1.20
2022-09-21T09:36:02.463Z,1.27
2022-09-21T09:38:57.349Z,1.30
2022-09-21T09:41:39.490Z,1.17
2022-09-21T09:44:30.624Z,1.25
2022-09-21T09:47:11.478Z,1.20
2022-09-21T09:50:09.160Z,0.93
2022-09-21T09:52:36.791Z,1.23
2022-09-21T09:55:24.486Z,1.15
2022-09-21T09:57:52.435Z,1.05
2022-09-21T10:00:21.736Z,1.10
2022-09-21T10:02:58.713Z,1.13
2022-09-21T10:05:38.574Z,1.10
2022-09-21T10:08:05.554Z,1.30
2022-09-21T10:10:41.290Z,1.13
2022-09-21T10:13:22.344Z,1.02
2022-09-21T10:16:12.835Z,0.80
2022-09-21T10:18:52.386Z,0.80
2022-09-21T10:21:23.702Z,1.00
2022-09-21T10:24:05.790Z,0.98
2022-09-21T10:26:51.547Z,0.90
2022-09-21T10:29:25.551Z,1.10
2022-09-21T10:32:04.767Z,0.93
2022-09-21T10:34:35.582Z,1.00
2022-09-21T10:37:34.948Z,0.90
2022-09-21T10:40:02.333Z,1.00
2022-09-21T10:42:37.613Z,1.08
2022-09-21T10:45:20.657Z,1.08
2022-09-21T10:47:51.668Z,0.80
2022-09-21T10:50:28.235Z,0.88
2022-09-21T10:53:12.363Z,0.77
2022-09-21T10:56:11.908Z,1.00
2022-09-21T10:59:31.803Z,1.00
2022-09-21T11:02:01.146Z,1.00
2022-09-21T11:04:51.195Z,0.85
2022-09-21T11:07:43.489Z,0.80
2022-09-21T11:10:35.023Z,0.82
2022-09-21T11:13:41.677Z,0.90
2022-09-21T11:16:30.024Z,0.70
2022-09-21T11:19:32.648Z,0.70
2022-09-21T11:22:32.660Z,0.77
2022-09-21T11:25:15.943Z,0.82
2022-09-21T11:27:49.891Z,1.05
2022-09-21T11:30:20.753Z,0.80
2022-09-21T11:33:04.163Z,0.80
2022-09-21T11:36:17.810Z,0.90
2022-09-21T11:39:11.671Z,0.90
2022-09-21T11:42:19.284Z,0.80
2022-09-21T11:45:00.943Z,0.90
2022-09-21T11:47:49.228Z,0.70
2022-09-21T11:50:56.580Z,0.82
2022-09-21T11:53:38.185Z,1.00
2022-09-21T11:56:32.061Z,0.82
2022-09-21T11:59:40.072Z,0.90
2022-09-21T12:02:36.931Z,0.80
2022-09-21T12:05:31.278Z,0.73
2022-09-21T12:08:28.791Z,0.80
2022-09-21T12:11:29.902Z,0.95
2022-09-21T12:14:09.947Z,0.82
2022-09-21T12:17:20.914Z,0.70
2022-09-21T12:20:11.292Z,0.80
2022-09-21T12:22:48.650Z,0.80
2022-09-21T12:25:31.807Z,0.70
2022-09-21T12:28:30.677Z,0.82
2022-09-21T12:31:04.392Z,0.80
2022-09-21T12:33:52.827Z,0.80
2022-09-21T12:37:06.443Z,0.70
2022-09-21T12:40:02.857Z,0.88
2022-09-21T12:42:44.907Z,0.90
2022-09-21T12:45:40.541Z,0.65
2022-09-21T12:48:26.801Z,0.75
2022-09-21T12:51:06.423Z,0.60
2022-09-21T12:53:38.746Z,0.63
2022-09-21T12:56:37.161Z,0.80
2022-09-21T12:59:19.303Z,0.73
2022-09-21T13:01:59.244Z,0.70
2022-09-21T13:04:53.402Z,0.70
2022-09-21T13:07:55.804Z,1.00
2022-09-21T13:10:31.365Z,0.60
2022-09-21T13:13:03.997Z,0.70
2022-09-21T13:15:44.023Z,0.70
2022-09-21T13:18:32.508Z,0.63
2022-09-21T13:21:32.282Z,0.70
2022-09-21T13:24:06.100Z,0.60
2022-09-21T13:26:42.532Z,0.60
2022-09-21T13:29:20.857Z,0.88
2022-09-21T13:32:23.313Z,0.65
2022-09-21T13:34:51.061Z,0.70
2022-09-21T13:37:29.128Z,0.65
2022-09-21T13:40:02.186Z,0.60
2022-09-21T13:42:35.288Z,0.80
2022-09-21T13:45:14.088Z,0.60
2022-09-21T13:47:47.864Z,0.68
2022-09-21T13:50:44.338Z,0.50
2022-09-21T13:53:43.148Z,0.80
2022-09-21T13:56:26.101Z,0.80
2022-09-21T13:59:00.331Z,0.73
2022-09-21T14:01:47.379Z,0.70
2022-09-21T14:04:24.497Z,0.60
2022-09-21T14:06:54.681Z,0.60
2022-09-21T14:09:26.138Z,0.60
2022-09-21T14:12:01.637Z,0.55
2022-09-21T14:14:38.942Z,0.57
2022-09-21T14:17:37.014Z,0.70
2022-09-21T14:20:31.427Z,0.77
2022-09-21T14:23:30.278Z,0.60
2022-09-21T14:26:02.457Z,0.70
2022-09-21T14:28:46.483Z,0.80
2022-09-21T14:31:29.299Z,0.63
2022-09-21T14:34:04.884Z,0.50
2022-09-21T14:36:41.969Z,0.70
2022-09-21T14:39:43.282Z,0.77
2022-09-21T14:42:19.398Z,0.68
2022-09-21T14:44:52.204Z,0.50
2022-09-21T14:47:38.578Z,0.60
2022-09-21T14:50:26.023Z,0.75
2022-09-21T14:53:49.535Z,0.50
2022-09-21T14:57:08.670Z,0.55
2022-09-21T15:00:26.302Z,0.60
2022-09-21T15:03:46.291Z,0.60
2022-09-21T15:06:45.276Z,0.70
2022-09-21T15:10:20.571Z,1.05
2022-09-21T15:13:43.232Z,0.60
2022-09-21T15:16:25.965Z,0.60
2022-09-21T15:19:26.244Z,0.40
2022-09-21T15:22:16.156Z,0.63
2022-09-21T15:24:55.638Z,0.60
2022-09-21T15:27:27.370Z,0.57
2022-09-21T15:30:01.065Z,0.70
2022-09-21T15:32:44.484Z,0.60
2022-09-21T15:35:30.692Z,0.70
2022-09-21T15:38:02.527Z,0.50
2022-09-21T15:40:35.103Z,0.70
2022-09-21T15:43:18.912Z,0.60
2022-09-21T15:45:51.870Z,0.60
2022-09-21T15:48:20.697Z,0.43
2022-09-21T15:50:58.155Z,0.60
2022-09-21T15:53:34.415Z,0.55
2022-09-21T15:56:01.944Z,0.60
2022-09-21T15:58:37.071Z,0.60
2022-09-21T16:01:13.038Z,0.60
2022-09-21T16:03:41.592Z,0.70
2022-09-21T16:06:40.332Z,0.70
2022-09-21T16:09:47.885Z,0.50
2022-09-21T16:12:37.173Z,0.70
2022-09-21T16:15:24.386Z,0.70
2022-09-21T16:18:06.864Z,0.70
2022-09-21T16:20:47.426Z,0.85
2022-09-21T16:23:26.748Z,1.23
2022-09-21T16:26:01.289Z,1.02
2022-09-21T16:28:41.315Z,1.20
2022-09-21T16:31:33.478Z,1.48
2022-09-21T16:34:18.779Z,1.10
2022-09-21T16:36:49.383Z,1.30
2022-09-21T16:39:18.585Z,1.50
2022-09-21T16:41:54.087Z,1.90
2022-09-21T16:44:26.051Z,1.42
2022-09-21T16:47:01.789Z,1.35
2022-09-21T16:49:36.872Z,1.50
2022-09-21T16:52:04.299Z,1.73
2022-09-21T16:54:31.700Z,1.67
2022-09-21T16:57:01.727Z,1.30
2022-09-21T16:59:29.829Z,1.90
2022-09-21T17:01:59.439Z,1.20
2022-09-21T17:04:32.942Z,1.42
2022-09-21T17:07:06.213Z,1.45
2022-09-21T17:09:40.627Z,1.50
2022-09-21T17:12:11.687Z,1.80
2022-09-21T17:14:42.970Z,1.80
2022-09-21T17:17:24.279Z,1.65
2022-09-21T17:19:53.685Z,1.90
2022-09-21T17:22:21.870Z,2.13
2022-09-21T17:24:52.493Z,2.40
2022-09-21T17:27:23.628Z,2.08
2022-09-21T17:29:53.719Z,2.03
2022-09-21T17:32:23.776Z,2.08
2022-09-21T17:35:31.736Z,2.13
2022-09-21T17:37:59.642Z,2.28
2022-09-21T17:40:27.790Z,2.15
2022-09-21T17:43:16.048Z,1.65
2022-09-21T17:46:27.633Z,2.22
2022-09-21T17:48:55.109Z,1.80
2022-09-21T17:51:40.991Z,1.77
2022-09-21T17:54:08.422Z,2.00
2022-09-21T17:56:56.511Z,1.70
2022-09-21T17:59:32.997Z,2.10
2022-09-21T18:02:02.040Z,1.70
2022-09-21T18:04:34.674Z,1.88
2022-09-21T18:07:03.027Z,1.95
2022-09-21T18:09:30.376Z,1.70
2022-09-21T18:12:48.541Z,2.22
2022-09-21T18:15:40.286Z,1.58
2022-09-21T18:18:19.788Z,1.55
2022-09-21T18:21:17.427Z,2.00
2022-09-21T18:24:37.709Z,1.73
2022-09-21T18:27:05.113Z,1.60
2022-09-21T18:29:42.130Z,1.95
2022-09-21T18:32:28.751Z,1.63
2022-09-21T18:35:31.182Z,1.63
2022-09-21T18:38:28.904Z,1.70
2022-09-21T18:41:24.871Z,1.67
2022-09-21T18:44:10.202Z,1.40
2022-09-21T18:47:04.711Z,1.83
2022-09-21T18:50:15.680Z,2.08
2022-09-21T18:53:13.112Z,1.67
2022-09-21T18:55:41.156Z,1.63
2022-09-21T18:58:10.429Z,1.83
2022-09-21T19:00:37.759Z,1.63
2022-09-21T19:03:17.789Z,1.60
2022-09-21T19:06:27.514Z,1.83
2022-09-21T19:09:09.785Z,1.45
2022-09-21T19:11:52.432Z,1.88
2022-09-21T19:14:56.213Z,1.80
2022-09-21T19:17:38.117Z,1.58
2022-09-21T19:20:24.259Z,1.40
2022-09-21T19:23:35.850Z,1.63
2022-09-21T19:26:29.772Z,1.63
2022-09-21T19:29:58.317Z,1.55
2022-09-21T19:32:45.026Z,1.58
2022-09-21T19:35:34.061Z,1.60
2022-09-21T19:38:03.987Z,1.30
2022-09-21T19:40:34.815Z,1.45
2022-09-21T19:43:47.462Z,1.67
2022-09-21T19:46:32.488Z,1.45
2022-09-21T19:49:20.818Z,1.58
2022-09-21T19:51:56.042Z,1.50
2022-09-21T19:54:44.237Z,1.50
2022-09-21T19:57:38.252Z,1.50
2022-09-21T20:00:10.043Z,1.38
2022-09-21T20:02:49.994Z,1.27
2022-09-21T20:05:37.265Z,1.50
2022-09-21T20:08:25.327Z,1.33
2022-09-21T20:11:29.093Z,1.60
2022-09-21T20:14:10.964Z,1.42
2022-09-21T20:17:02.221Z,1.35
2022-09-21T20:19:50.034Z,1.60
2022-09-21T20:22:27.543Z,1.73
2022-09-21T20:25:19.166Z,1.50
2022-09-21T20:27:57.668Z,1.30
2022-09-21T20:30:31.717Z,1.90
2022-09-21T20:33:07.222Z,1.60
2022-09-21T20:35:35.190Z,1.40
2022-09-21T20:38:03.314Z,1.55
2022-09-21T20:40:32.138Z,1.40
2022-09-21T20:43:01.159Z,1.45
2022-09-21T20:45:29.223Z,1.80
2022-09-21T20:48:23.089Z,1.50
2022-09-21T20:50:51.089Z,1.40
2022-09-21T20:53:19.271Z,1.60
2022-09-21T20:55:58.060Z,1.45
2022-09-21T20:58:25.166Z,1.35
2022-09-21T21:00:58.080Z,1.70
2022-09-21T21:03:25.806Z,1.38
2022-09-21T21:05:52.797Z,1.40
2022-09-21T21:08:19.790Z,1.40
2022-09-21T21:10:47.074Z,1.70
2022-09-21T21:13:13.978Z,1.55
2022-09-21T21:15:41.174Z,1.50
2022-09-21T21:18:12.347Z,1.58
2022-09-21T21:20:39.614Z,1.27
2022-09-21T21:23:08.300Z,1.20
2022-09-21T21:25:35.883Z,1.38
2022-09-21T21:28:03.865Z,1.40
2022-09-21T21:30:31.431Z,1.77
2022-09-21T21:32:58.438Z,1.67
2022-09-21T21:35:25.899Z,1.58
2022-09-21T21:37:52.973Z,1.48
2022-09-21T21:40:20.757Z,1.63
2022-09-21T21:42:47.901Z,1.30
2022-09-21T21:45:14.841Z,1.60
2022-09-21T21:47:41.790Z,1.65
2022-09-21T21:50:10.806Z,1.60
2022-09-21T21:52:38.105Z,1.40
2022-09-21T21:55:06.462Z,1.65
2022-09-21T21:57:33.455Z,1.35
2022-09-21T22:00:00.455Z,1.65
2022-09-21T22:02:29.522Z,1.50
2022-09-21T22:04:56.449Z,1.50
2022-09-21T22:07:23.810Z,1.60
2022-09-21T22:09:50.848Z,1.30
2022-09-21T22:12:17.805Z,1.50
2022-09-21T22:14:46.392Z,1.65
2022-09-21T22:17:13.652Z,1.50
2022-09-21T22:19:40.698Z,1.35
2022-09-21T22:22:07.607Z,1.48
2022-09-21T22:24:34.516Z,1.50
2022-09-21T22:27:01.382Z,1.80
2022-09-21T22:29:28.317Z,1.52
2022-09-21T22:31:55.544Z,1.63
2022-09-21T22:34:22.567Z,1.50
2022-09-21T22:36:50.623Z,1.55
2022-09-21T22:39:17.924Z,1.35
2022-09-21T22:41:44.860Z,1.40
2022-09-21T22:44:11.996Z,1.40
2022-09-21T22:46:39.737Z,1.67
2022-09-21T22:49:07.811Z,1.55
2022-09-21T22:51:35.431Z,1.40
2022-09-21T22:54:02.463Z,1.30
2022-09-21T22:56:32.199Z,1.33
2022-09-21T22:59:03.028Z,1.25
2022-09-21T23:01:39.836Z,1.38
2022-09-21T23:04:11.124Z,1.23
2022-09-21T23:06:44.696Z,1.30
2022-09-21T23:09:19.818Z,1.63
2022-09-21T23:11:53.428Z,1.40
2022-09-21T23:14:22.162Z,1.55
2022-09-21T23:16:49.624Z,1.38
2022-09-21T23:19:16.631Z,1.17
2022-09-21T23:21:49.296Z,1.55
2022-09-21T23:24:16.840Z,1.48
2022-09-21T23:26:43.938Z,1.40
2022-09-21T23:29:14.966Z,1.50
2022-09-21T23:31:45.513Z,1.25
2022-09-21T23:34:15.450Z,1.52
2022-09-21T23:36:43.757Z,1.10
2022-09-21T23:39:14.001Z,1.30
2022-09-21T23:41:41.174Z,1.23
2022-09-21T23:44:08.193Z,1.48
2022-09-21T23:46:38.926Z,1.17
2022-09-21T23:49:06.528Z,1.30
2022-09-21T23:51:34.559Z,1.27
2022-09-21T23:54:03.877Z,1.40
2022-09-21T23:56:31.707Z,1.05
2022-09-21T23:58:59.938Z,1.27
